sensor_id;sensor_type;location;lat;lon;timestamp;P1;durP1;ratioP1;P2;durP2;ratioP2
6251;SDS011;3159;52.414;9.784;2023-05-10T00:01:13;4.67;;;3.10;;
6251;SDS011;3159;52.414;9.784;2023-05-10T00:03:40;7.97;;;3.33;;
6251;SDS011;3159;52.414;9.784;2023-05-10T00:06:07;3.87;;;3.27;;
6251;SDS011;3159;52.414;9.784;2023-05-10T00:08:34;4.17;;;3.50;;
6251;SDS011;3159;52.414;9.784;2023-05-10T00:11:01;5.70;;;3.27;;
6251;SDS011;3159;52.414;9.784;2023-05-10T00:13:29;7.30;;;3.23;;
6251;SDS011;3159;52.414;9.784;2023-05-10T00:15:56;4.40;;;3.20;;
6251;SDS011;3159;52.414;9.784;2023-05-10T00:18:23;4.63;;;3.30;;
6251;SDS011;3159;52.414;9.784;2023-05-10T00:20:49;5.50;;;3.37;;
6251;SDS011;3159;52.414;9.784;2023-05-10T00:23:16;3.67;;;3.27;;
6251;SDS011;3159;52.414;9.784;2023-05-10T00:25:43;6.43;;;3.23;;
6251;SDS011;3159;52.414;9.784;2023-05-10T00:28:10;4.87;;;3.60;;
6251;SDS011;3159;52.414;9.784;2023-05-10T00:30:39;5.50;;;3.20;;
6251;SDS011;3159;52.414;9.784;2023-05-10T00:33:05;3.27;;;2.80;;
6251;SDS011;3159;52.414;9.784;2023-05-10T00:35:32;4.80;;;3.20;;
6251;SDS011;3159;52.414;9.784;2023-05-10T00:37:59;5.63;;;3.43;;
6251;SDS011;3159;52.414;9.784;2023-05-10T00:40:26;4.20;;;3.03;;
6251;SDS011;3159;52.414;9.784;2023-05-10T00:42:53;3.60;;;3.17;;
6251;SDS011;3159;52.414;9.784;2023-05-10T00:45:20;4.77;;;3.17;;
6251;SDS011;3159;52.414;9.784;2023-05-10T00:47:48;6.17;;;3.67;;
6251;SDS011;3159;52.414;9.784;2023-05-10T00:50:17;6.03;;;3.50;;
6251;SDS011;3159;52.414;9.784;2023-05-10T00:52:44;4.33;;;3.13;;
6251;SDS011;3159;52.414;9.784;2023-05-10T00:55:11;6.43;;;3.30;;
6251;SDS011;3159;52.414;9.784;2023-05-10T00:57:38;3.70;;;3.20;;
6251;SDS011;3159;52.414;9.784;2023-05-10T01:00:06;4.77;;;3.00;;
6251;SDS011;3159;52.414;9.784;2023-05-10T01:02:33;5.10;;;3.40;;
6251;SDS011;3159;52.414;9.784;2023-05-10T01:05:02;4.57;;;3.30;;
6251;SDS011;3159;52.414;9.784;2023-05-10T01:07:30;5.07;;;3.33;;
6251;SDS011;3159;52.414;9.784;2023-05-10T01:09:57;4.97;;;3.13;;
6251;SDS011;3159;52.414;9.784;2023-05-10T01:12:24;3.90;;;3.50;;
6251;SDS011;3159;52.414;9.784;2023-05-10T01:14:51;4.60;;;3.77;;
6251;SDS011;3159;52.414;9.784;2023-05-10T01:17:19;7.67;;;4.00;;
6251;SDS011;3159;52.414;9.784;2023-05-10T01:19:46;4.27;;;3.83;;
6251;SDS011;3159;52.414;9.784;2023-05-10T01:28:46;5.77;;;4.40;;
6251;SDS011;3159;52.414;9.784;2023-05-10T01:31:54;6.40;;;4.10;;
6251;SDS011;3159;52.414;9.784;2023-05-10T01:34:32;9.63;;;4.20;;
6251;SDS011;3159;52.414;9.784;2023-05-10T01:37:07;5.83;;;4.20;;
6251;SDS011;3159;52.414;9.784;2023-05-10T01:39:39;7.20;;;4.30;;
6251;SDS011;3159;52.414;9.784;2023-05-10T01:42:13;7.20;;;4.07;;
6251;SDS011;3159;52.414;9.784;2023-05-10T01:44:46;7.57;;;4.30;;
6251;SDS011;3159;52.414;9.784;2023-05-10T01:47:24;5.40;;;4.00;;
6251;SDS011;3159;52.414;9.784;2023-05-10T01:49:57;6.90;;;4.53;;
6251;SDS011;3159;52.414;9.784;2023-05-10T01:52:30;7.60;;;4.50;;
6251;SDS011;3159;52.414;9.784;2023-05-10T01:55:01;5.07;;;4.17;;
6251;SDS011;3159;52.414;9.784;2023-05-10T01:57:32;7.47;;;4.67;;
6251;SDS011;3159;52.414;9.784;2023-05-10T02:00:02;8.30;;;4.10;;
6251;SDS011;3159;52.414;9.784;2023-05-10T02:02:31;8.40;;;4.40;;
6251;SDS011;3159;52.414;9.784;2023-05-10T02:05:03;6.57;;;4.47;;
6251;SDS011;3159;52.414;9.784;2023-05-10T02:07:32;5.90;;;4.07;;
6251;SDS011;3159;52.414;9.784;2023-05-10T02:10:02;5.20;;;4.13;;
6251;SDS011;3159;52.414;9.784;2023-05-10T02:12:32;5.63;;;4.17;;
6251;SDS011;3159;52.414;9.784;2023-05-10T02:15:02;8.13;;;4.37;;
6251;SDS011;3159;52.414;9.784;2023-05-10T02:17:33;6.17;;;4.23;;
6251;SDS011;3159;52.414;9.784;2023-05-10T02:20:01;6.50;;;4.60;;
6251;SDS011;3159;52.414;9.784;2023-05-10T02:22:29;5.67;;;4.10;;
6251;SDS011;3159;52.414;9.784;2023-05-10T02:24:57;7.03;;;4.87;;
6251;SDS011;3159;52.414;9.784;2023-05-10T02:27:25;6.97;;;4.20;;
6251;SDS011;3159;52.414;9.784;2023-05-10T02:29:54;8.73;;;5.13;;
6251;SDS011;3159;52.414;9.784;2023-05-10T02:32:22;6.87;;;4.80;;
6251;SDS011;3159;52.414;9.784;2023-05-10T02:34:53;8.27;;;4.60;;
6251;SDS011;3159;52.414;9.784;2023-05-10T02:37:22;8.30;;;4.87;;
6251;SDS011;3159;52.414;9.784;2023-05-10T02:39:50;5.33;;;4.50;;
6251;SDS011;3159;52.414;9.784;2023-05-10T02:42:22;6.00;;;4.57;;
6251;SDS011;3159;52.414;9.784;2023-05-10T02:44:53;6.47;;;4.60;;
6251;SDS011;3159;52.414;9.784;2023-05-10T02:47:23;7.30;;;5.30;;
6251;SDS011;3159;52.414;9.784;2023-05-10T02:49:50;5.23;;;4.57;;
6251;SDS011;3159;52.414;9.784;2023-05-10T02:52:19;6.60;;;5.17;;
6251;SDS011;3159;52.414;9.784;2023-05-10T02:54:52;7.47;;;5.33;;
6251;SDS011;3159;52.414;9.784;2023-05-10T02:57:22;8.03;;;5.20;;
6251;SDS011;3159;52.414;9.784;2023-05-10T02:59:53;8.47;;;5.70;;
6251;SDS011;3159;52.414;9.784;2023-05-10T03:02:21;5.90;;;5.30;;
6251;SDS011;3159;52.414;9.784;2023-05-10T03:04:48;7.00;;;5.40;;
6251;SDS011;3159;52.414;9.784;2023-05-10T03:07:15;6.37;;;5.53;;
6251;SDS011;3159;52.414;9.784;2023-05-10T03:09:45;7.97;;;5.23;;
6251;SDS011;3159;52.414;9.784;2023-05-10T03:12:14;6.33;;;5.07;;
6251;SDS011;3159;52.414;9.784;2023-05-10T03:14:49;7.57;;;5.23;;
6251;SDS011;3159;52.414;9.784;2023-05-10T03:17:25;6.77;;;5.07;;
6251;SDS011;3159;52.414;9.784;2023-05-10T03:19:58;7.70;;;5.20;;
6251;SDS011;3159;52.414;9.784;2023-05-10T03:22:31;8.83;;;6.00;;
6251;SDS011;3159;52.414;9.784;2023-05-10T03:25:05;10.50;;;5.83;;
6251;SDS011;3159;52.414;9.784;2023-05-10T03:27:34;6.53;;;5.73;;
6251;SDS011;3159;52.414;9.784;2023-05-10T03:30:03;9.00;;;6.20;;
6251;SDS011;3159;52.414;9.784;2023-05-10T03:32:34;9.47;;;6.07;;
6251;SDS011;3159;52.414;9.784;2023-05-10T03:35:05;7.50;;;5.80;;
6251;SDS011;3159;52.414;9.784;2023-05-10T03:37:33;8.83;;;5.90;;
6251;SDS011;3159;52.414;9.784;2023-05-10T03:40:00;7.73;;;5.47;;
6251;SDS011;3159;52.414;9.784;2023-05-10T03:42:28;9.07;;;6.13;;
6251;SDS011;3159;52.414;9.784;2023-05-10T03:44:55;7.23;;;5.87;;
6251;SDS011;3159;52.414;9.784;2023-05-10T03:47:22;6.47;;;5.63;;
6251;SDS011;3159;52.414;9.784;2023-05-10T03:49:49;6.87;;;6.00;;
6251;SDS011;3159;52.414;9.784;2023-05-10T03:52:16;8.27;;;6.13;;
6251;SDS011;3159;52.414;9.784;2023-05-10T03:54:43;7.23;;;6.03;;
6251;SDS011;3159;52.414;9.784;2023-05-10T03:57:10;7.80;;;6.03;;
6251;SDS011;3159;52.414;9.784;2023-05-10T03:59:38;8.33;;;5.93;;
6251;SDS011;3159;52.414;9.784;2023-05-10T04:02:05;6.83;;;6.10;;
6251;SDS011;3159;52.414;9.784;2023-05-10T04:04:32;6.90;;;6.20;;
6251;SDS011;3159;52.414;9.784;2023-05-10T04:06:59;6.90;;;5.93;;
6251;SDS011;3159;52.414;9.784;2023-05-10T04:09:26;7.47;;;5.80;;
6251;SDS011;3159;52.414;9.784;2023-05-10T04:11:53;7.73;;;6.60;;
6251;SDS011;3159;52.414;9.784;2023-05-10T04:14:20;8.90;;;6.37;;
6251;SDS011;3159;52.414;9.784;2023-05-10T04:16:48;7.57;;;6.53;;
6251;SDS011;3159;52.414;9.784;2023-05-10T04:19:15;6.83;;;5.93;;
6251;SDS011;3159;52.414;9.784;2023-05-10T04:21:42;6.93;;;6.07;;
6251;SDS011;3159;52.414;9.784;2023-05-10T04:24:09;10.63;;;6.30;;
6251;SDS011;3159;52.414;9.784;2023-05-10T04:26:36;7.97;;;6.60;;
6251;SDS011;3159;52.414;9.784;2023-05-10T04:29:02;7.53;;;6.30;;
6251;SDS011;3159;52.414;9.784;2023-05-10T04:31:29;8.73;;;6.93;;
6251;SDS011;3159;52.414;9.784;2023-05-10T04:33:58;7.53;;;6.43;;
6251;SDS011;3159;52.414;9.784;2023-05-10T04:36:25;8.43;;;6.67;;
6251;SDS011;3159;52.414;9.784;2023-05-10T04:38:52;6.87;;;6.10;;
6251;SDS011;3159;52.414;9.784;2023-05-10T04:41:19;10.33;;;7.13;;
6251;SDS011;3159;52.414;9.784;2023-05-10T04:43:46;7.93;;;6.97;;
6251;SDS011;3159;52.414;9.784;2023-05-10T04:46:14;9.37;;;6.97;;
6251;SDS011;3159;52.414;9.784;2023-05-10T04:48:41;8.70;;;7.00;;
6251;SDS011;3159;52.414;9.784;2023-05-10T04:51:09;10.23;;;7.13;;
6251;SDS011;3159;52.414;9.784;2023-05-10T04:53:37;9.37;;;7.33;;
6251;SDS011;3159;52.414;9.784;2023-05-10T04:56:04;9.20;;;7.17;;
6251;SDS011;3159;52.414;9.784;2023-05-10T04:58:32;9.87;;;6.90;;
6251;SDS011;3159;52.414;9.784;2023-05-10T05:01:04;7.73;;;6.80;;
6251;SDS011;3159;52.414;9.784;2023-05-10T05:03:31;10.60;;;7.93;;
6251;SDS011;3159;52.414;9.784;2023-05-10T05:05:58;10.70;;;7.37;;
6251;SDS011;3159;52.414;9.784;2023-05-10T05:08:27;8.27;;;7.37;;
6251;SDS011;3159;52.414;9.784;2023-05-10T05:10:53;9.73;;;7.50;;
6251;SDS011;3159;52.414;9.784;2023-05-10T05:13:20;12.30;;;8.23;;
6251;SDS011;3159;52.414;9.784;2023-05-10T05:15:47;10.73;;;7.47;;
6251;SDS011;3159;52.414;9.784;2023-05-10T05:18:14;8.73;;;7.30;;
6251;SDS011;3159;52.414;9.784;2023-05-10T05:20:41;11.90;;;7.80;;
6251;SDS011;3159;52.414;9.784;2023-05-10T05:23:08;9.53;;;7.47;;
6251;SDS011;3159;52.414;9.784;2023-05-10T05:25:36;11.00;;;7.97;;
6251;SDS011;3159;52.414;9.784;2023-05-10T05:28:03;9.20;;;7.90;;
6251;SDS011;3159;52.414;9.784;2023-05-10T05:30:30;12.33;;;8.07;;
6251;SDS011;3159;52.414;9.784;2023-05-10T05:32:57;8.20;;;6.57;;
6251;SDS011;3159;52.414;9.784;2023-05-10T05:35:24;10.90;;;6.87;;
6251;SDS011;3159;52.414;9.784;2023-05-10T05:37:51;9.23;;;7.17;;
6251;SDS011;3159;52.414;9.784;2023-05-10T05:40:18;9.50;;;6.90;;
6251;SDS011;3159;52.414;9.784;2023-05-10T05:42:46;7.53;;;6.60;;
6251;SDS011;3159;52.414;9.784;2023-05-10T05:45:14;9.80;;;7.33;;
6251;SDS011;3159;52.414;9.784;2023-05-10T05:47:41;9.00;;;6.97;;
6251;SDS011;3159;52.414;9.784;2023-05-10T05:50:08;8.97;;;6.90;;
6251;SDS011;3159;52.414;9.784;2023-05-10T05:52:36;10.13;;;7.33;;
6251;SDS011;3159;52.414;9.784;2023-05-10T05:55:03;10.40;;;7.23;;
6251;SDS011;3159;52.414;9.784;2023-05-10T05:57:30;8.07;;;7.17;;
6251;SDS011;3159;52.414;9.784;2023-05-10T05:59:59;11.63;;;7.30;;
6251;SDS011;3159;52.414;9.784;2023-05-10T06:02:25;11.83;;;7.67;;
6251;SDS011;3159;52.414;9.784;2023-05-10T06:04:52;10.50;;;7.63;;
6251;SDS011;3159;52.414;9.784;2023-05-10T06:07:19;9.70;;;7.30;;
6251;SDS011;3159;52.414;9.784;2023-05-10T06:09:46;8.87;;;7.80;;
6251;SDS011;3159;52.414;9.784;2023-05-10T06:12:13;8.40;;;6.70;;
6251;SDS011;3159;52.414;9.784;2023-05-10T06:14:40;8.13;;;6.87;;
6251;SDS011;3159;52.414;9.784;2023-05-10T06:17:08;9.43;;;6.83;;
6251;SDS011;3159;52.414;9.784;2023-05-10T06:19:35;8.93;;;7.13;;
6251;SDS011;3159;52.414;9.784;2023-05-10T06:22:02;6.70;;;6.10;;
6251;SDS011;3159;52.414;9.784;2023-05-10T06:24:29;10.43;;;6.90;;
6251;SDS011;3159;52.414;9.784;2023-05-10T06:26:56;6.73;;;6.07;;
6251;SDS011;3159;52.414;9.784;2023-05-10T06:29:25;8.30;;;6.73;;
6251;SDS011;3159;52.414;9.784;2023-05-10T06:31:52;11.10;;;7.67;;
6251;SDS011;3159;52.414;9.784;2023-05-10T06:34:20;10.00;;;7.53;;
6251;SDS011;3159;52.414;9.784;2023-05-10T06:36:47;8.13;;;7.27;;
6251;SDS011;3159;52.414;9.784;2023-05-10T06:39:14;7.50;;;6.47;;
6251;SDS011;3159;52.414;9.784;2023-05-10T06:41:41;8.43;;;7.63;;
6251;SDS011;3159;52.414;9.784;2023-05-10T06:44:08;9.80;;;8.00;;
6251;SDS011;3159;52.414;9.784;2023-05-10T06:46:35;8.83;;;7.93;;
6251;SDS011;3159;52.414;9.784;2023-05-10T06:49:02;8.37;;;7.53;;
6251;SDS011;3159;52.414;9.784;2023-05-10T06:51:30;11.10;;;7.77;;
6251;SDS011;3159;52.414;9.784;2023-05-10T06:53:57;10.80;;;8.07;;
6251;SDS011;3159;52.414;9.784;2023-05-10T06:56:25;8.60;;;7.70;;
6251;SDS011;3159;52.414;9.784;2023-05-10T06:58:52;10.40;;;8.30;;
6251;SDS011;3159;52.414;9.784;2023-05-10T07:01:18;9.03;;;7.57;;
6251;SDS011;3159;52.414;9.784;2023-05-10T07:03:45;10.47;;;7.93;;
6251;SDS011;3159;52.414;9.784;2023-05-10T07:06:12;10.57;;;7.97;;
6251;SDS011;3159;52.414;9.784;2023-05-10T07:08:40;11.07;;;7.23;;
6251;SDS011;3159;52.414;9.784;2023-05-10T07:11:08;7.53;;;6.40;;
6251;SDS011;3159;52.414;9.784;2023-05-10T07:13:35;9.40;;;7.27;;
6251;SDS011;3159;52.414;9.784;2023-05-10T07:16:04;10.93;;;6.97;;
6251;SDS011;3159;52.414;9.784;2023-05-10T07:18:31;7.23;;;6.53;;
6251;SDS011;3159;52.414;9.784;2023-05-10T07:20:58;7.00;;;5.93;;
6251;SDS011;3159;52.414;9.784;2023-05-10T07:23:25;8.50;;;6.73;;
6251;SDS011;3159;52.414;9.784;2023-05-10T07:25:53;8.23;;;6.70;;
6251;SDS011;3159;52.414;9.784;2023-05-10T07:28:22;8.67;;;6.97;;
6251;SDS011;3159;52.414;9.784;2023-05-10T07:30:49;8.83;;;6.97;;
6251;SDS011;3159;52.414;9.784;2023-05-10T07:33:16;7.70;;;6.27;;
6251;SDS011;3159;52.414;9.784;2023-05-10T07:35:43;8.77;;;7.30;;
6251;SDS011;3159;52.414;9.784;2023-05-10T07:38:10;7.50;;;6.73;;
6251;SDS011;3159;52.414;9.784;2023-05-10T07:40:39;7.90;;;7.10;;
6251;SDS011;3159;52.414;9.784;2023-05-10T07:43:07;7.97;;;6.30;;
6251;SDS011;3159;52.414;9.784;2023-05-10T07:45:34;7.37;;;6.40;;
6251;SDS011;3159;52.414;9.784;2023-05-10T07:48:01;7.83;;;6.40;;
6251;SDS011;3159;52.414;9.784;2023-05-10T07:50:28;8.20;;;6.60;;
6251;SDS011;3159;52.414;9.784;2023-05-10T07:52:55;7.03;;;6.33;;
6251;SDS011;3159;52.414;9.784;2023-05-10T07:55:22;7.57;;;6.40;;
6251;SDS011;3159;52.414;9.784;2023-05-10T07:57:49;9.10;;;6.30;;
6251;SDS011;3159;52.414;9.784;2023-05-10T08:00:18;7.23;;;5.90;;
6251;SDS011;3159;52.414;9.784;2023-05-10T08:02:45;7.00;;;6.03;;
6251;SDS011;3159;52.414;9.784;2023-05-10T08:05:13;6.67;;;5.93;;
6251;SDS011;3159;52.414;9.784;2023-05-10T08:07:40;8.03;;;5.20;;
6251;SDS011;3159;52.414;9.784;2023-05-10T08:10:08;7.40;;;5.70;;
6251;SDS011;3159;52.414;9.784;2023-05-10T08:12:36;6.43;;;5.73;;
6251;SDS011;3159;52.414;9.784;2023-05-10T08:15:03;7.33;;;5.87;;
6251;SDS011;3159;52.414;9.784;2023-05-10T08:17:33;8.30;;;4.90;;
6251;SDS011;3159;52.414;9.784;2023-05-10T08:20:00;5.10;;;4.60;;
6251;SDS011;3159;52.414;9.784;2023-05-10T08:22:27;5.10;;;4.60;;
6251;SDS011;3159;52.414;9.784;2023-05-10T08:24:54;5.40;;;4.23;;
6251;SDS011;3159;52.414;9.784;2023-05-10T08:27:21;5.43;;;4.20;;
6251;SDS011;3159;52.414;9.784;2023-05-10T08:29:48;9.70;;;4.63;;
6251;SDS011;3159;52.414;9.784;2023-05-10T08:32:14;4.90;;;4.10;;
6251;SDS011;3159;52.414;9.784;2023-05-10T08:34:43;4.63;;;4.17;;
6251;SDS011;3159;52.414;9.784;2023-05-10T08:37:10;4.27;;;3.93;;
6251;SDS011;3159;52.414;9.784;2023-05-10T08:39:38;6.40;;;3.80;;
6251;SDS011;3159;52.414;9.784;2023-05-10T08:42:05;3.93;;;3.50;;
6251;SDS011;3159;52.414;9.784;2023-05-10T08:44:34;3.17;;;2.87;;
6251;SDS011;3159;52.414;9.784;2023-05-10T08:47:02;3.43;;;3.10;;
6251;SDS011;3159;52.414;9.784;2023-05-10T08:49:32;3.03;;;2.77;;
6251;SDS011;3159;52.414;9.784;2023-05-10T08:52:01;4.10;;;2.67;;
6251;SDS011;3159;52.414;9.784;2023-05-10T08:54:31;3.27;;;2.80;;
6251;SDS011;3159;52.414;9.784;2023-05-10T08:56:58;4.80;;;2.90;;
6251;SDS011;3159;52.414;9.784;2023-05-10T08:59:25;3.57;;;2.40;;
6251;SDS011;3159;52.414;9.784;2023-05-10T09:01:52;3.47;;;2.40;;
6251;SDS011;3159;52.414;9.784;2023-05-10T09:04:21;2.60;;;2.13;;
6251;SDS011;3159;52.414;9.784;2023-05-10T09:06:49;2.00;;;1.90;;
6251;SDS011;3159;52.414;9.784;2023-05-10T09:09:17;1.87;;;1.77;;
6251;SDS011;3159;52.414;9.784;2023-05-10T09:11:45;2.30;;;1.73;;
6251;SDS011;3159;52.414;9.784;2023-05-10T09:14:12;1.90;;;1.80;;
6251;SDS011;3159;52.414;9.784;2023-05-10T09:16:41;2.57;;;1.77;;
6251;SDS011;3159;52.414;9.784;2023-05-10T09:19:08;2.03;;;1.53;;
6251;SDS011;3159;52.414;9.784;2023-05-10T09:21:35;2.00;;;1.80;;
6251;SDS011;3159;52.414;9.784;2023-05-10T09:24:03;2.77;;;2.23;;
6251;SDS011;3159;52.414;9.784;2023-05-10T09:26:32;2.23;;;2.03;;
6251;SDS011;3159;52.414;9.784;2023-05-10T09:29:00;2.07;;;1.93;;
6251;SDS011;3159;52.414;9.784;2023-05-10T09:31:44;2.67;;;2.47;;
6251;SDS011;3159;52.414;9.784;2023-05-10T09:34:16;3.07;;;2.27;;
6251;SDS011;3159;52.414;9.784;2023-05-10T09:36:53;2.80;;;2.60;;
6251;SDS011;3159;52.414;9.784;2023-05-10T09:39:29;2.83;;;2.53;;
6251;SDS011;3159;52.414;9.784;2023-05-10T09:41:59;2.53;;;2.33;;
6251;SDS011;3159;52.414;9.784;2023-05-10T09:44:28;2.90;;;2.70;;
6251;SDS011;3159;52.414;9.784;2023-05-10T09:46:55;2.97;;;2.57;;
6251;SDS011;3159;52.414;9.784;2023-05-10T09:49:23;3.60;;;2.60;;
6251;SDS011;3159;52.414;9.784;2023-05-10T09:51:59;3.67;;;2.80;;
6251;SDS011;3159;52.414;9.784;2023-05-10T09:54:27;3.20;;;2.93;;
6251;SDS011;3159;52.414;9.784;2023-05-10T09:56:54;4.97;;;2.87;;
6251;SDS011;3159;52.414;9.784;2023-05-10T09:59:23;3.17;;;2.87;;
6251;SDS011;3159;52.414;9.784;2023-05-10T10:01:52;2.80;;;2.60;;
6251;SDS011;3159;52.414;9.784;2023-05-10T10:04:19;3.17;;;2.50;;
6251;SDS011;3159;52.414;9.784;2023-05-10T10:06:47;3.17;;;2.97;;
6251;SDS011;3159;52.414;9.784;2023-05-10T10:09:25;5.30;;;3.10;;
6251;SDS011;3159;52.414;9.784;2023-05-10T10:11:53;3.20;;;2.50;;
6251;SDS011;3159;52.414;9.784;2023-05-10T10:14:22;3.13;;;2.80;;
6251;SDS011;3159;52.414;9.784;2023-05-10T10:16:50;5.77;;;3.03;;
6251;SDS011;3159;52.414;9.784;2023-05-10T10:19:17;3.87;;;3.33;;
6251;SDS011;3159;52.414;9.784;2023-05-10T10:21:45;3.40;;;2.93;;
6251;SDS011;3159;52.414;9.784;2023-05-10T10:24:12;3.50;;;3.10;;
6251;SDS011;3159;52.414;9.784;2023-05-10T10:26:39;3.47;;;3.17;;
6251;SDS011;3159;52.414;9.784;2023-05-10T10:29:10;3.90;;;3.30;;
6251;SDS011;3159;52.414;9.784;2023-05-10T10:31:47;3.87;;;3.53;;
6251;SDS011;3159;52.414;9.784;2023-05-10T10:34:22;4.57;;;3.40;;
6251;SDS011;3159;52.414;9.784;2023-05-10T10:36:53;4.20;;;3.37;;
6251;SDS011;3159;52.414;9.784;2023-05-10T10:39:21;4.23;;;3.27;;
6251;SDS011;3159;52.414;9.784;2023-05-10T10:41:50;4.77;;;4.13;;
6251;SDS011;3159;52.414;9.784;2023-05-10T10:44:33;4.00;;;3.57;;
6251;SDS011;3159;52.414;9.784;2023-05-10T10:47:22;4.27;;;3.83;;
6251;SDS011;3159;52.414;9.784;2023-05-10T10:49:54;4.17;;;3.50;;
6251;SDS011;3159;52.414;9.784;2023-05-10T10:52:33;4.43;;;3.77;;
6251;SDS011;3159;52.414;9.784;2023-05-10T10:55:02;4.60;;;4.20;;
6251;SDS011;3159;52.414;9.784;2023-05-10T10:57:31;4.30;;;3.90;;
6251;SDS011;3159;52.414;9.784;2023-05-10T11:00:19;4.17;;;3.77;;
6251;SDS011;3159;52.414;9.784;2023-05-10T11:02:49;4.23;;;3.80;;
6251;SDS011;3159;52.414;9.784;2023-05-10T11:08:09;4.30;;;3.90;;
6251;SDS011;3159;52.414;9.784;2023-05-10T11:10:38;5.20;;;4.10;;
6251;SDS011;3159;52.414;9.784;2023-05-10T11:13:07;3.73;;;3.40;;
6251;SDS011;3159;52.414;9.784;2023-05-10T11:15:36;4.97;;;3.40;;
6251;SDS011;3159;52.414;9.784;2023-05-10T11:18:18;5.43;;;3.43;;
6251;SDS011;3159;52.414;9.784;2023-05-10T11:20:49;4.10;;;3.40;;
6251;SDS011;3159;52.414;9.784;2023-05-10T11:23:17;5.63;;;3.43;;
6251;SDS011;3159;52.414;9.784;2023-05-10T11:25:45;4.63;;;3.33;;
6251;SDS011;3159;52.414;9.784;2023-05-10T11:28:12;4.27;;;3.53;;
6251;SDS011;3159;52.414;9.784;2023-05-10T11:30:39;3.53;;;3.17;;
6251;SDS011;3159;52.414;9.784;2023-05-10T11:33:07;4.03;;;3.50;;
6251;SDS011;3159;52.414;9.784;2023-05-10T11:35:39;5.00;;;3.50;;
6251;SDS011;3159;52.414;9.784;2023-05-10T11:38:07;3.80;;;3.30;;
6251;SDS011;3159;52.414;9.784;2023-05-10T11:40:34;4.47;;;3.40;;
6251;SDS011;3159;52.414;9.784;2023-05-10T11:43:01;5.20;;;3.67;;
6251;SDS011;3159;52.414;9.784;2023-05-10T11:45:29;3.90;;;3.53;;
6251;SDS011;3159;52.414;9.784;2023-05-10T11:47:58;4.73;;;3.60;;
6251;SDS011;3159;52.414;9.784;2023-05-10T11:50:25;3.90;;;3.50;;
6251;SDS011;3159;52.414;9.784;2023-05-10T11:52:54;5.30;;;3.57;;
6251;SDS011;3159;52.414;9.784;2023-05-10T11:55:22;6.37;;;3.57;;
6251;SDS011;3159;52.414;9.784;2023-05-10T11:57:51;4.50;;;3.60;;
6251;SDS011;3159;52.414;9.784;2023-05-10T12:00:18;5.07;;;3.23;;
6251;SDS011;3159;52.414;9.784;2023-05-10T12:02:46;5.50;;;3.40;;
6251;SDS011;3159;52.414;9.784;2023-05-10T12:05:13;4.70;;;3.13;;
6251;SDS011;3159;52.414;9.784;2023-05-10T12:07:40;4.57;;;3.47;;
6251;SDS011;3159;52.414;9.784;2023-05-10T12:10:09;4.40;;;3.50;;
6251;SDS011;3159;52.414;9.784;2023-05-10T12:12:39;4.27;;;3.20;;
6251;SDS011;3159;52.414;9.784;2023-05-10T12:15:11;3.80;;;3.13;;
6251;SDS011;3159;52.414;9.784;2023-05-10T12:17:38;5.87;;;3.40;;
6251;SDS011;3159;52.414;9.784;2023-05-10T12:20:15;3.77;;;3.43;;
6251;SDS011;3159;52.414;9.784;2023-05-10T12:22:44;5.17;;;3.47;;
6251;SDS011;3159;52.414;9.784;2023-05-10T12:25:13;3.67;;;3.37;;
6251;SDS011;3159;52.414;9.784;2023-05-10T12:27:40;3.70;;;3.13;;
6251;SDS011;3159;52.414;9.784;2023-05-10T12:30:13;4.30;;;3.30;;
6251;SDS011;3159;52.414;9.784;2023-05-10T12:32:46;5.03;;;3.67;;
6251;SDS011;3159;52.414;9.784;2023-05-10T12:35:13;4.70;;;3.80;;
6251;SDS011;3159;52.414;9.784;2023-05-10T12:37:41;4.03;;;3.53;;
6251;SDS011;3159;52.414;9.784;2023-05-10T12:40:09;6.00;;;3.57;;
6251;SDS011;3159;52.414;9.784;2023-05-10T12:42:39;5.77;;;3.20;;
6251;SDS011;3159;52.414;9.784;2023-05-10T12:45:06;5.17;;;3.40;;
6251;SDS011;3159;52.414;9.784;2023-05-10T12:47:34;4.10;;;3.70;;
6251;SDS011;3159;52.414;9.784;2023-05-10T12:50:02;4.80;;;4.10;;
6251;SDS011;3159;52.414;9.784;2023-05-10T12:52:29;5.63;;;3.90;;
6251;SDS011;3159;52.414;9.784;2023-05-10T12:54:57;4.50;;;3.80;;
6251;SDS011;3159;52.414;9.784;2023-05-10T12:57:25;4.20;;;3.77;;
6251;SDS011;3159;52.414;9.784;2023-05-10T12:59:53;6.43;;;3.63;;
6251;SDS011;3159;52.414;9.784;2023-05-10T13:02:20;4.93;;;3.93;;
6251;SDS011;3159;52.414;9.784;2023-05-10T13:04:48;4.63;;;3.50;;
6251;SDS011;3159;52.414;9.784;2023-05-10T13:07:15;5.47;;;3.47;;
6251;SDS011;3159;52.414;9.784;2023-05-10T13:09:42;4.97;;;3.80;;
6251;SDS011;3159;52.414;9.784;2023-05-10T13:12:09;4.90;;;3.70;;
6251;SDS011;3159;52.414;9.784;2023-05-10T13:14:36;5.10;;;3.63;;
6251;SDS011;3159;52.414;9.784;2023-05-10T13:17:06;6.43;;;4.13;;
6251;SDS011;3159;52.414;9.784;2023-05-10T13:19:33;9.80;;;4.87;;
6251;SDS011;3159;52.414;9.784;2023-05-10T13:22:00;8.30;;;5.20;;
6251;SDS011;3159;52.414;9.784;2023-05-10T13:24:27;5.97;;;4.00;;
6251;SDS011;3159;52.414;9.784;2023-05-10T13:26:55;6.83;;;3.93;;
6251;SDS011;3159;52.414;9.784;2023-05-10T13:29:21;4.87;;;4.33;;
6251;SDS011;3159;52.414;9.784;2023-05-10T13:31:48;4.37;;;3.57;;
6251;SDS011;3159;52.414;9.784;2023-05-10T13:34:17;5.73;;;4.10;;
6251;SDS011;3159;52.414;9.784;2023-05-10T13:36:45;5.40;;;3.57;;
6251;SDS011;3159;52.414;9.784;2023-05-10T13:39:12;5.77;;;3.60;;
6251;SDS011;3159;52.414;9.784;2023-05-10T13:41:39;6.60;;;4.40;;
6251;SDS011;3159;52.414;9.784;2023-05-10T13:44:06;6.20;;;4.23;;
6251;SDS011;3159;52.414;9.784;2023-05-10T13:46:33;5.57;;;4.03;;
6251;SDS011;3159;52.414;9.784;2023-05-10T13:49:00;5.17;;;3.63;;
6251;SDS011;3159;52.414;9.784;2023-05-10T13:51:28;9.80;;;4.87;;
6251;SDS011;3159;52.414;9.784;2023-05-10T13:53:56;6.50;;;5.17;;
6251;SDS011;3159;52.414;9.784;2023-05-10T13:56:23;8.97;;;6.30;;
6251;SDS011;3159;52.414;9.784;2023-05-10T13:58:50;9.03;;;6.53;;
6251;SDS011;3159;52.414;9.784;2023-05-10T14:01:17;8.17;;;6.03;;
6251;SDS011;3159;52.414;9.784;2023-05-10T14:03:44;7.97;;;5.47;;
6251;SDS011;3159;52.414;9.784;2023-05-10T14:06:11;9.33;;;5.40;;
6251;SDS011;3159;52.414;9.784;2023-05-10T14:08:39;9.10;;;5.57;;
6251;SDS011;3159;52.414;9.784;2023-05-10T14:11:06;10.83;;;6.47;;
6251;SDS011;3159;52.414;9.784;2023-05-10T14:13:33;9.93;;;6.70;;
6251;SDS011;3159;52.414;9.784;2023-05-10T14:16:00;9.47;;;6.17;;
6251;SDS011;3159;52.414;9.784;2023-05-10T14:18:27;8.73;;;6.50;;
6251;SDS011;3159;52.414;9.784;2023-05-10T14:20:54;7.73;;;6.27;;
6251;SDS011;3159;52.414;9.784;2023-05-10T14:23:21;10.30;;;6.73;;
6251;SDS011;3159;52.414;9.784;2023-05-10T14:25:51;8.93;;;7.00;;
6251;SDS011;3159;52.414;9.784;2023-05-10T14:28:18;9.07;;;6.67;;
6251;SDS011;3159;52.414;9.784;2023-05-10T14:30:46;8.37;;;6.63;;
6251;SDS011;3159;52.414;9.784;2023-05-10T14:33:13;10.77;;;7.17;;
6251;SDS011;3159;52.414;9.784;2023-05-10T14:35:40;9.93;;;7.70;;
6251;SDS011;3159;52.414;9.784;2023-05-10T14:38:07;8.63;;;7.43;;
6251;SDS011;3159;52.414;9.784;2023-05-10T14:40:33;11.07;;;8.07;;
6251;SDS011;3159;52.414;9.784;2023-05-10T14:43:02;8.40;;;6.83;;
6251;SDS011;3159;52.414;9.784;2023-05-10T14:45:29;11.53;;;8.20;;
6251;SDS011;3159;52.414;9.784;2023-05-10T14:47:56;8.57;;;7.37;;
6251;SDS011;3159;52.414;9.784;2023-05-10T14:50:24;10.77;;;7.93;;
6251;SDS011;3159;52.414;9.784;2023-05-10T14:52:51;10.97;;;8.33;;
6251;SDS011;3159;52.414;9.784;2023-05-10T14:55:17;9.57;;;7.47;;
6251;SDS011;3159;52.414;9.784;2023-05-10T14:57:45;11.17;;;7.90;;
6251;SDS011;3159;52.414;9.784;2023-05-10T15:00:16;10.50;;;8.50;;
6251;SDS011;3159;52.414;9.784;2023-05-10T15:02:44;9.53;;;7.97;;
6251;SDS011;3159;52.414;9.784;2023-05-10T15:05:11;12.10;;;9.30;;
6251;SDS011;3159;52.414;9.784;2023-05-10T15:07:38;13.30;;;9.23;;
6251;SDS011;3159;52.414;9.784;2023-05-10T15:10:05;12.53;;;9.37;;
6251;SDS011;3159;52.414;9.784;2023-05-10T15:12:33;13.10;;;9.80;;
6251;SDS011;3159;52.414;9.784;2023-05-10T15:15:00;14.70;;;10.10;;
6251;SDS011;3159;52.414;9.784;2023-05-10T15:17:28;12.83;;;8.97;;
6251;SDS011;3159;52.414;9.784;2023-05-10T15:19:55;12.20;;;9.47;;
6251;SDS011;3159;52.414;9.784;2023-05-10T15:22:22;10.83;;;8.77;;
6251;SDS011;3159;52.414;9.784;2023-05-10T15:24:49;13.63;;;9.03;;
6251;SDS011;3159;52.414;9.784;2023-05-10T15:27:16;11.97;;;9.37;;
6251;SDS011;3159;52.414;9.784;2023-05-10T15:29:43;12.10;;;8.97;;